Time;durP1;ratioP1;P1;durP2;ratioP2;P2;SDS_P1;SDS_P2;PMS_P1;PMS_P2;Temp;Humidity;BMP_temperature;BMP_pressure;BME280_temperature;BME280_humidity;BME280_pressure;Samples;Min_cycle;Max_cycle;Signal;HPM_P1;HPM_P2
2021/12/29 00:00:45;;;;;;;39.13;19.77;;;;;;;6.18;100.00;99568.56;5072464;28;20454;-76
2021/12/29 00:03:27;;;;;;;37.05;19.13;;;;;;;6.17;100.00;99556.81;5072740;28;20064;-77
2021/12/29 00:05:59;;;;;;;36.22;18.08;;;;;;;6.14;100.00;99563.56;5072247;28;20032;-77
2021/12/29 00:08:31;;;;;;;35.58;18.60;;;;;;;6.14;100.00;99563.56;5054757;28;20119;-76
2021/12/29 00:10:59;;;;;;;;;;;;;;;6.18;100.00;99576.97;5054900;28;20024;-75
2021/12/29 00:13:26;;;;;;;33.63;17.27;;;;;;;6.11;100.00;99570.34;5072379;28;20366;-75
2021/12/29 00:15:57;;;;;;;35.88;18.80;;;;;;;6.10;100.00;99571.22;5072274;28;20445;-75
2021/12/29 00:21:45;;;;;;;37.55;18.63;;;;;;;6.12;100.00;99570.31;5072056;28;20063;-75
2021/12/29 00:24:22;;;;;;;34.60;19.13;;;;;;;6.13;100.00;99563.59;5072023;28;20020;-75
2021/12/29 00:26:55;;;;;;;37.72;18.98;;;;;;;6.10;100.00;99561.13;5072198;28;20081;-74
2021/12/29 00:29:40;;;;;;;42.30;20.33;;;;;;;6.18;100.00;99573.63;5072045;28;20024;-73
2021/12/29 00:32:14;;;;;;;36.88;18.95;;;;;;;6.06;100.00;99575.47;5071791;28;20043;-74
2021/12/29 00:34:40;;;;;;;39.22;18.48;;;;;;;6.02;100.00;99566.28;5068292;28;20075;-73
2021/12/29 00:37:22;;;;;;;34.28;17.30;;;;;;;6.05;100.00;99565.41;5053892;28;20040;-75
2021/12/29 00:42:46;;;;;;;33.78;16.73;;;;;;;6.05;100.00;99558.69;5072019;28;19924;-75
2021/12/29 00:45:23;;;;;;;27.02;13.93;;;;;;;6.04;100.00;99557.00;5071725;28;20048;-74
2021/12/29 00:48:12;;;;;;;29.88;16.20;;;;;;;6.06;100.00;99557.81;5053625;28;20029;-69
2021/12/29 00:50:47;;;;;;;28.05;16.25;;;;;;;6.10;100.00;99554.38;5071824;28;20025;-75
2021/12/29 00:53:16;;;;;;;28.17;15.57;;;;;;;6.07;100.00;99546.03;5053597;28;20025;-75
2021/12/29 00:55:48;;;;;;;25.83;15.55;;;;;;;6.11;100.00;99556.06;5071566;28;20031;-74
2021/12/29 00:58:31;;;;;;;26.30;15.20;;;;;;;5.88;100.00;99522.81;5071680;28;20040;-76
2021/12/29 01:01:04;;;;;;;26.08;14.27;;;;;;;6.09;100.00;99547.69;5053638;28;20071;-74
2021/12/29 01:03:43;;;;;;;23.20;13.90;;;;;;;6.13;100.00;99541.72;5053583;28;20041;-75
2021/12/29 01:06:13;;;;;;;23.83;14.45;;;;;;;6.16;100.00;99545.06;5053532;28;20032;-76
2021/12/29 01:08:46;;;;;;;25.52;14.38;;;;;;;6.07;100.00;99546.03;5071695;28;20516;-74
2021/12/29 01:11:29;;;;;;;18.98;12.82;;;;;;;6.07;100.00;99541.00;5057235;28;20028;-74
2021/12/29 01:13:58;;;;;;;21.40;13.38;;;;;;;6.12;100.00;99542.56;5057731;28;20467;-75
2021/12/29 01:16:40;;;;;;;20.27;12.80;;;;;;;6.00;100.00;99526.84;5075510;28;20025;-73
2021/12/29 01:19:26;;;;;;;22.35;13.20;;;;;;;6.09;100.00;99542.63;5057926;28;20039;-74
2021/12/29 01:22:13;;;;;;;23.92;13.25;;;;;;;6.13;100.00;99546.78;5057488;28;20476;-74
2021/12/29 01:24:46;;;;;;;22.48;13.27;;;;;;;6.08;100.00;99537.63;5057445;28;20565;-75
2021/12/29 01:27:41;;;;;;;19.10;11.55;;;;;;;6.06;100.00;99541.88;5057361;28;20481;-74
2021/12/29 01:30:14;;;;;;;20.67;13.57;;;;;;;5.99;100.00;99528.53;5057283;28;20114;-73
2021/12/29 01:33:00;;;;;;;21.83;13.60;;;;;;;6.12;100.00;99544.25;5075447;28;20040;-75
2021/12/29 01:35:51;;;;;;;21.75;14.05;;;;;;;6.14;100.00;99533.28;5066995;28;20041;-74
2021/12/29 01:38:16;;;;;;;20.40;13.57;;;;;;;6.17;100.00;99536.63;5035301;28;20128;-75
2021/12/29 01:41:03;;;;;;;20.63;12.63;;;;;;;6.11;100.00;99540.91;5035221;28;20104;-76
2021/12/29 01:43:32;;;;;;;18.98;12.20;;;;;;;6.10;100.00;99531.69;5034208;28;20127;-74
2021/12/29 01:46:20;;;;;;;18.27;11.05;;;;;;;6.13;100.00;99534.16;5034049;28;20031;-75
2021/12/29 01:48:53;;;;;;;17.77;11.77;;;;;;;6.12;100.00;99529.13;5035032;28;20461;-75
2021/12/29 01:51:21;;;;;;;17.20;11.70;;;;;;;6.09;100.00;99521.63;5034685;28;20116;-75
2021/12/29 01:54:04;;;;;;;16.30;11.73;;;;;;;6.10;100.00;99521.59;5033959;28;20025;-75
2021/12/29 01:56:34;;;;;;;15.30;10.20;;;;;;;6.05;100.00;99512.44;5033820;28;20033;-74
2021/12/29 01:59:14;;;;;;;14.65;10.25;;;;;;;6.11;100.00;99519.91;5049976;28;20029;-74
2021/12/29 02:01:49;;;;;;;15.05;9.65;;;;;;;6.13;100.00;99518.19;5034354;28;20080;-74
2021/12/29 02:04:15;;;;;;;15.60;10.57;;;;;;;6.14;100.00;99519.84;5035327;28;20104;-74
2021/12/29 02:06:47;;;;;;;15.40;10.77;;;;;;;6.12;100.00;99526.59;5034383;28;20140;-74
2021/12/29 02:09:28;;;;;;;14.30;10.48;;;;;;;6.09;100.00;99514.06;5033497;28;20029;-73
2021/12/29 02:12:01;;;;;;;15.48;10.50;;;;;;;6.09;100.00;99521.63;5034503;28;20053;-75
2021/12/29 02:14:34;;;;;;;13.55;10.07;;;;;;;6.16;100.00;99532.44;5034614;28;20024;-74
2021/12/29 02:17:02;;;;;;;14.48;10.00;;;;;;;6.10;100.00;99531.69;5034323;28;20037;-74
2021/12/29 02:19:47;;;;;;;13.68;9.13;;;;;;;6.14;100.00;99534.97;5034141;28;20028;-75
2021/12/29 02:22:38;;;;;;;13.65;9.27;;;;;;;6.06;100.00;99530.06;5033024;28;20037;-75
2021/12/29 02:27:53;;;;;;;12.98;9.02;;;;;;;6.15;100.00;99534.13;5034160;28;20021;-74
2021/12/29 02:30:22;;;;;;;11.98;8.55;;;;;;;6.15;100.00;99534.13;5033044;28;20068;-75
2021/12/29 02:33:02;;;;;;;12.73;9.05;;;;;;;6.05;100.00;99530.94;5033134;28;20466;-75
2021/12/29 02:35:36;;;;;;;9.57;6.93;;;;;;;6.07;100.00;99528.38;5033817;28;20068;-73
2021/12/29 02:38:17;;;;;;;9.20;6.82;;;;;;;6.04;100.00;99528.44;5070857;28;20036;-76
2021/12/29 02:41:00;;;;;;;9.67;7.20;;;;;;;6.09;100.00;99531.72;5073956;28;20036;-74
2021/12/29 02:43:37;;;;;;;10.60;7.15;;;;;;;6.05;100.00;99525.88;5073758;28;20029;-75
2021/12/29 02:46:12;;;;;;;9.25;6.45;;;;;;;6.06;100.00;99531.78;5073976;28;20093;-75
2021/12/29 02:48:56;;;;;;;8.23;6.30;;;;;;;5.91;100.00;99502.59;5055701;28;20405;-74
2021/12/29 02:51:24;;;;;;;7.78;5.78;;;;;;;6.09;100.00;99529.19;5055259;28;20513;-75
2021/12/29 02:53:51;;;;;;;7.35;5.57;;;;;;;6.06;100.00;99524.22;5073545;28;20161;-69
2021/12/29 02:57:04;;;;;;;8.13;5.57;;;;;;;6.10;100.00;99529.16;5073748;28;20050;-77
2021/12/29 02:59:30;;;;;;;6.05;4.70;;;;;;;6.06;100.00;99534.31;5055839;28;20423;-75
2021/12/29 03:02:02;;;;;;;8.50;3.97;;;;;;;6.04;100.00;99526.72;5073465;28;20028;-77
2021/12/29 03:04:47;;;;;;;5.95;4.40;;;;;;;6.05;100.00;99512.44;5055737;28;20028;-74
2021/12/29 03:07:19;;;;;;;6.90;4.78;;;;;;;5.91;100.00;99499.22;5073595;28;20556;-77
2021/12/29 03:10:00;;;;;;;5.65;4.50;;;;;;;6.06;100.00;99501.50;5055736;28;20040;-76
2021/12/29 03:12:45;;;;;;;5.37;4.40;;;;;;;5.97;100.00;99517.63;5055495;28;20027;-77
2021/12/29 03:15:17;;;;;;;6.80;5.20;;;;;;;5.92;100.00;99495.88;5055409;28;20059;-76
2021/12/29 03:18:27;;;;;;;7.47;5.82;;;;;;;5.92;100.00;99500.91;5055727;28;20412;-78
2021/12/29 03:20:56;;;;;;;7.82;5.53;;;;;;;5.92;100.00;99508.47;5055311;28;20150;-76
2021/12/29 03:23:24;;;;;;;7.65;5.10;;;;;;;5.88;100.00;99501.81;5073326;28;20034;-73
2021/12/29 03:25:52;;;;;;;5.35;4.78;;;;;;;5.86;100.00;99509.38;5055242;28;20029;-74
2021/12/29 03:28:37;;;;;;;6.47;4.47;;;;;;;5.89;100.00;99506.00;5073131;28;20052;-75
2021/12/29 03:31:21;;;;;;;5.38;4.15;;;;;;;5.78;100.00;99477.56;5073076;28;20035;-76
2021/12/29 03:33:52;;;;;;;5.45;3.95;;;;;;;5.91;100.00;99504.28;5072952;28;20025;-75
2021/12/29 03:36:18;;;;;;;4.50;3.40;;;;;;;5.88;100.00;99505.16;5051506;28;20106;-77
2021/12/29 03:39:23;;;;;;;7.30;4.40;;;;;;;5.85;100.00;99502.69;5053013;28;20025;-75
2021/12/29 03:42:17;;;;;;;4.93;3.53;;;;;;;5.87;100.00;99513.59;5051788;28;20119;-75
2021/12/29 03:45:16;;;;;;;4.15;3.22;;;;;;;5.89;100.00;99506.81;5051832;28;20443;-77
2021/12/29 03:47:44;;;;;;;5.63;3.97;;;;;;;5.91;100.00;99507.63;5052992;28;20143;-77
2021/12/29 03:50:16;;;;;;;4.60;3.35;;;;;;;5.86;100.00;99501.81;5051335;28;20043;-76
2021/12/29 03:52:44;;;;;;;8.20;4.40;;;;;;;5.93;100.00;99507.59;5052349;28;20029;-74
2021/12/29 03:55:20;;;;;;;5.00;3.40;;;;;;;5.90;100.00;99497.56;5052736;28;20121;-78
2021/12/29 03:58:01;;;;;;;4.03;3.20;;;;;;;5.91;100.00;99497.53;5052803;28;20017;-73
2021/12/29 04:00:47;;;;;;;4.50;3.13;;;;;;;6.00;100.00;99501.59;5052471;28;20029;-74
2021/12/29 04:03:14;;;;;;;4.40;3.08;;;;;;;5.87;100.00;99495.94;5052433;28;20475;-76
2021/12/29 04:05:42;;;;;;;4.60;3.35;;;;;;;5.91;100.00;99499.22;5052260;28;20071;-75
2021/12/29 04:08:09;;;;;;;4.70;3.53;;;;;;;5.87;100.00;99498.44;5050955;28;20120;-75
2021/12/29 04:10:36;;;;;;;6.72;4.38;;;;;;;5.93;100.00;99507.59;5052222;28;20029;-73
2021/12/29 04:13:04;;;;;;;5.15;3.95;;;;;;;6.00;100.00;99511.69;5052178;28;20610;-76
2021/12/29 04:15:41;;;;;;;7.68;4.35;;;;;;;5.96;100.00;99518.47;5050972;28;20110;-76
2021/12/29 04:21:17;;;;;;;4.05;2.30;;;;;;;5.97;100.00;99514.25;5039138;28;20112;-78
2021/12/29 04:23:48;;;;;;;3.08;2.55;;;;;;;5.95;100.00;99505.88;5051018;28;20020;-76
2021/12/29 04:29:30;;;;;;;5.95;3.30;;;;;;;5.89;100.00;99495.91;5052143;28;19971;-77
2021/12/29 04:35:17;;;;;;;3.23;2.53;;;;;;;5.86;100.00;99508.56;5052331;28;20044;-78
2021/12/29 04:37:43;;;;;;;4.22;3.13;;;;;;;5.85;100.00;99505.22;5050480;28;20291;-76
2021/12/29 04:40:18;;;;;;;4.40;3.38;;;;;;;5.91;100.00;99509.31;5051912;28;20029;-78
2021/12/29 04:42:59;;;;;;;4.30;3.25;;;;;;;5.83;100.00;99501.88;5051683;28;20032;-75
2021/12/29 04:45:25;;;;;;;3.45;2.88;;;;;;;5.93;100.00;99505.06;5050165;28;20124;-77
2021/12/29 04:48:00;;;;;;;3.80;2.80;;;;;;;5.90;100.00;99507.66;5050392;28;20124;-69
2021/12/29 04:50:37;;;;;;;7.47;3.53;;;;;;;5.85;100.00;99495.13;5051782;28;20086;-76
2021/12/29 04:53:13;;;;;;;3.22;2.60;;;;;;;5.81;100.00;99502.72;5050591;28;20025;-75
2021/12/29 04:55:47;;;;;;;2.88;2.50;;;;;;;5.86;100.00;99495.97;5051482;28;20107;-76
2021/12/29 04:58:53;;;;;;;3.92;3.25;;;;;;;5.87;100.00;99500.97;5051640;28;20031;-79
2021/12/29 05:01:22;;;;;;;2.97;2.53;;;;;;;5.86;100.00;99490.91;5050548;28;20033;-75
2021/12/29 05:03:49;;;;;;;3.33;2.67;;;;;;;5.80;100.00;99488.47;5052001;28;20067;-77
2021/12/29 05:09:02;;;;;;;2.30;2.10;;;;;;;5.80;100.00;99494.31;5051585;28;20025;-77
2021/12/29 05:11:27;;;;;;;3.13;2.38;;;;;;;5.79;100.00;99486.78;5051433;28;20531;-75
2021/12/29 05:13:56;;;;;;;3.17;2.80;;;;;;;5.71;100.00;99476.84;5049987;28;20071;-74
2021/12/29 05:16:28;;;;;;;3.95;3.00;;;;;;;5.72;100.00;99480.19;5051261;28;20029;-73
2021/12/29 05:18:56;;;;;;;5.63;4.15;;;;;;;5.75;100.00;99478.44;5051126;28;20021;-73
2021/12/29 05:22:06;;;;;;;6.85;5.05;;;;;;;5.78;100.00;99485.97;5046026;28;20041;-75
2021/12/29 05:24:50;;;;;;;8.45;4.90;;;;;;;5.72;100.00;99472.63;5031165;28;20030;-76
2021/12/29 05:27:17;;;;;;;7.78;4.78;;;;;;;5.71;100.00;99476.00;5031099;28;20163;-78
2021/12/29 05:33:05;;;;;;;10.40;6.20;;;;;;;5.68;100.00;99468.50;5031555;28;20454;-78
2021/12/29 05:35:31;;;;;;;9.32;5.82;;;;;;;5.68;100.00;99468.50;5031027;28;20181;-75
2021/12/29 05:38:03;;;;;;;11.63;6.90;;;;;;;5.73;100.00;99476.81;5047614;28;20198;-79
2021/12/29 05:40:36;;;;;;;12.85;8.50;;;;;;;5.69;100.00;99467.63;5033045;28;20029;-77
2021/12/29 05:43:08;;;;;;;12.88;7.53;;;;;;;5.75;100.00;99475.94;5032823;28;20036;-75
2021/12/29 05:45:34;;;;;;;14.38;7.53;;;;;;;5.72;100.00;99480.19;5049697;28;20040;-71
2021/12/29 05:48:03;;;;;;;9.95;6.80;;;;;;;5.80;100.00;99480.91;5043546;28;20025;-73
2021/12/29 05:50:30;;;;;;;9.63;6.00;;;;;;;6.12;100.00;99476.13;5048426;28;20033;-73
2021/12/29 05:53:04;;;;;;;11.23;7.55;;;;;;;5.79;100.00;99469.97;5049547;28;20029;-75
2021/12/29 05:55:31;;;;;;;10.02;6.40;;;;;;;5.83;100.00;99485.88;5051518;28;20072;-76
2021/12/29 05:58:05;;;;;;;8.52;5.97;;;;;;;5.91;100.00;99474.84;5053728;28;20028;-72
2021/12/29 06:00:33;;;;;;;7.45;4.95;;;;;;;5.80;100.00;99481.72;5052479;28;20033;-75
2021/12/29 06:03:04;;;;;;;5.57;3.90;;;;;;;5.58;100.00;99457.75;5053783;28;20055;-73
2021/12/29 06:05:39;;;;;;;5.53;3.37;;;;;;;5.75;100.00;99482.66;5055058;28;20029;-78
2021/12/29 06:08:07;;;;;;;7.18;4.75;;;;;;;5.83;100.00;99483.34;5052587;28;20279;-72
2021/12/29 06:10:39;;;;;;;6.82;5.53;;;;;;;5.61;100.00;99440.03;5053562;28;20047;-74
2021/12/29 06:13:06;;;;;;;8.98;6.00;;;;;;;5.77;100.00;99466.66;5035733;28;20021;-74
2021/12/29 06:15:32;;;;;;;7.13;5.38;;;;;;;5.79;100.00;99471.66;5036061;28;20063;-74
2021/12/29 06:18:09;;;;;;;8.25;6.00;;;;;;;5.88;100.00;99474.06;5053505;28;20049;-73
2021/12/29 06:20:41;;;;;;;7.63;5.63;;;;;;;5.77;100.00;99464.13;5052830;28;20033;-73
2021/12/29 06:23:15;;;;;;;;;;;;;;;5.78;100.00;99475.91;5053856;28;20032;-74
2021/12/29 06:25:42;;;;;;;7.25;5.45;;;;;;;5.76;100.00;99465.00;5053742;28;19913;-75
2021/12/29 06:28:08;;;;;;;6.55;5.72;;;;;;;5.79;100.00;99476.69;5053208;28;20087;-74
2021/12/29 06:30:36;;;;;;;6.60;4.82;;;;;;;5.84;100.00;99478.31;5053690;28;20478;-76
2021/12/29 06:33:06;;;;;;;5.10;4.40;;;;;;;5.78;100.00;99473.38;5053970;28;20029;-74
2021/12/29 06:35:34;;;;;;;5.82;4.70;;;;;;;5.80;100.00;99473.34;5053375;28;20114;-74
2021/12/29 06:38:02;;;;;;;5.43;4.30;;;;;;;5.79;100.00;99475.03;5053320;28;20362;-73
2021/12/29 06:40:33;;;;;;;6.57;4.78;;;;;;;5.87;100.00;99472.38;5053960;28;20376;-75
2021/12/29 06:42:59;;;;;;;6.55;4.60;;;;;;;6.45;100.00;99467.94;5034945;28;20125;-72
2021/12/29 06:45:27;;;;;;;6.32;4.90;;;;;;;5.85;100.00;99469.91;5053323;28;20025;-74
2021/12/29 06:48:00;;;;;;;5.85;5.05;;;;;;;5.86;100.00;99463.19;5035224;28;20086;-74
2021/12/29 06:50:26;;;;;;;6.80;5.85;;;;;;;5.70;100.00;99434.00;5034686;28;20409;-73
2021/12/29 06:52:53;;;;;;;5.85;5.07;;;;;;;5.89;100.00;99463.13;5053124;28;20029;-73
2021/12/29 06:55:21;;;;;;;7.93;6.43;;;;;;;5.87;100.00;99469.88;5053107;28;20029;-72
2021/12/29 06:58:03;;;;;;;8.10;6.10;;;;;;;5.92;100.00;99480.72;5035027;28;20888;-78
2021/12/29 07:00:40;;;;;;;;;;;;;;;5.91;100.00;99479.88;5053766;28;20025;-75
2021/12/29 07:03:32;;;;;;;9.02;6.93;;;;;;;5.97;100.00;99478.94;5053549;28;20419;-77
2021/12/29 07:06:18;;;;;;;7.97;6.25;;;;;;;6.00;100.00;99471.34;5052779;28;20480;-77
2021/12/29 07:08:44;;;;;;;9.15;6.30;;;;;;;5.96;100.00;99473.06;5052509;28;20120;-77
2021/12/29 07:11:41;;;;;;;7.13;5.38;;;;;;;5.97;100.00;99463.81;5053365;28;20107;-76
2021/12/29 07:14:27;;;;;;;6.15;4.93;;;;;;;5.98;100.00;99470.53;5052386;28;20024;-77
2021/12/29 07:16:53;;;;;;;8.18;6.15;;;;;;;5.92;100.00;99455.50;5053228;28;20025;-78
2021/12/29 07:22:51;;;;;;;7.38;5.88;;;;;;;6.00;100.00;99458.72;5053216;28;20120;-76
2021/12/29 07:26:04;;;;;;;7.00;5.95;;;;;;;6.06;100.00;99468.72;5053185;28;20039;-79
2021/12/29 07:28:47;;;;;;;;;;;;;;;6.12;100.00;99456.78;5052767;28;20040;-76
2021/12/29 07:31:37;;;;;;;7.88;6.22;;;;;;;6.13;100.00;99460.16;5035226;28;20453;-75
2021/12/29 07:34:22;;;;;;;7.63;6.43;;;;;;;6.20;100.00;99456.63;5053034;28;20048;-75
2021/12/29 07:36:54;;;;;;;10.38;7.43;;;;;;;6.21;100.00;99468.41;5042821;28;20045;-74
2021/12/29 07:39:22;;;;;;;11.15;8.65;;;;;;;6.19;100.00;99464.25;5013028;28;20335;-77
2021/12/29 07:42:05;;;;;;;11.63;9.18;;;;;;;6.27;100.00;99468.31;5012828;28;20045;-75
2021/12/29 07:44:49;;;;;;;12.55;10.57;;;;;;;6.26;100.00;99476.72;5009477;28;20199;-75
2021/12/29 07:47:15;;;;;;;13.63;10.60;;;;;;;6.22;100.00;99464.19;5012644;28;20441;-73
2021/12/29 07:53:08;;;;;;;17.48;13.18;;;;;;;6.31;100.00;99474.13;5012779;28;20133;-74
2021/12/29 07:55:41;;;;;;;13.73;10.55;;;;;;;6.36;100.00;99473.16;5012691;28;20406;-75
2021/12/29 07:58:13;;;;;;;12.48;8.82;;;;;;;6.49;100.00;99489.75;5011345;28;20028;-75
2021/12/29 08:04:01;;;;;;;9.80;6.80;;;;;;;6.39;100.00;99498.34;5012730;28;20072;-72
2021/12/29 08:06:31;;;;;;;12.18;9.02;;;;;;;6.45;100.00;99489.81;5010500;28;20565;-74
2021/12/29 08:12:18;;;;;;;8.50;6.25;;;;;;;6.53;100.00;99495.56;5011811;28;20045;-75
2021/12/29 08:15:15;;;;;;;9.85;8.07;;;;;;;6.46;100.00;99499.88;5010888;28;20045;-75
2021/12/29 08:17:41;;;;;;;11.15;8.50;;;;;;;6.40;100.00;99479.00;5012130;28;20034;-73
2021/12/29 08:20:17;;;;;;;11.15;8.43;;;;;;;6.62;100.00;99493.69;5010690;28;20451;-74
2021/12/29 08:26:04;;;;;;;10.40;7.93;;;;;;;6.54;100.00;99487.94;5010161;28;20064;-74
2021/12/29 08:31:59;;;;;;;11.40;8.27;;;;;;;6.57;100.00;99477.81;5011817;28;20042;-74
2021/12/29 08:34:39;;;;;;;12.73;9.90;;;;;;;6.61;100.00;99478.56;5011109;28;20088;-74
2021/12/29 08:37:05;;;;;;;13.13;9.60;;;;;;;6.68;100.00;99464.94;5013740;28;20037;-74
2021/12/29 08:39:34;;;;;;;12.82;10.20;;;;;;;6.74;100.00;99464.81;5033130;28;20029;-73
2021/12/29 08:42:12;;;;;;;12.80;9.85;;;;;;;6.73;100.00;99458.97;5050609;28;20033;-73
2021/12/29 08:45:00;;;;;;;11.95;9.13;;;;;;;6.68;100.00;99460.72;5033706;28;20067;-74
2021/12/29 08:47:26;;;;;;;11.73;8.88;;;;;;;6.72;100.00;99448.84;5051066;28;20401;-73
2021/12/29 08:49:53;;;;;;;14.25;9.90;;;;;;;6.75;100.00;99451.34;5050252;28;20025;-71
2021/12/29 08:52:26;;;;;;;13.80;10.63;;;;;;;6.69;100.00;99441.38;5033467;28;20414;-72
2021/12/29 08:55:25;;;;;;;17.83;11.32;;;;;;;6.77;100.00;99442.03;5051008;28;20013;-75
2021/12/29 08:58:32;;;;;;;14.68;10.98;;;;;;;6.72;100.00;99448.84;5051006;28;20032;-76
2021/12/29 09:00:59;;;;;;;13.60;10.30;;;;;;;6.72;100.00;99444.66;5051383;28;20035;-75
2021/12/29 09:06:46;;;;;;;18.80;11.57;;;;;;;6.73;100.00;99446.31;5051354;28;20543;-75
2021/12/29 09:09:14;;;;;;;14.25;9.90;;;;;;;6.69;100.00;99436.31;5050953;28;20029;-77
2021/12/29 09:11:43;;;;;;;18.15;12.05;;;;;;;6.71;100.00;99430.38;5050657;28;20033;-74
2021/12/29 09:14:10;;;;;;;16.55;12.38;;;;;;;6.73;100.00;99432.88;5051178;28;20029;-75
2021/12/29 09:16:37;;;;;;;16.27;11.80;;;;;;;6.72;100.00;99424.44;5051209;28;20438;-75
2021/12/29 09:19:19;;;;;;;16.05;11.57;;;;;;;6.79;100.00;99423.44;5050624;28;20033;-75
2021/12/29 09:22:04;;;;;;;;;;;;;;;6.81;100.00;99419.19;5051317;28;20024;-74
2021/12/29 09:24:59;;;;;;;16.10;10.75;;;;;;;6.78;100.00;99411.69;5033461;28;19917;-77
2021/12/29 09:27:25;;;;;;;15.98;11.30;;;;;;;6.78;100.00;99404.09;5049981;28;20040;-76
2021/12/29 09:29:55;;;;;;;14.18;9.70;;;;;;;6.78;100.00;99406.63;5051117;28;20025;-72
2021/12/29 09:32:39;;;;;;;17.40;12.00;;;;;;;6.88;100.00;99397.16;5055294;28;20473;-76
2021/12/29 09:35:24;;;;;;;16.77;12.00;;;;;;;6.88;100.00;99397.16;5055258;28;20060;-76
2021/12/29 09:37:51;;;;;;;17.38;12.35;;;;;;;6.85;100.00;99392.19;5033797;28;20085;-77
2021/12/29 09:40:22;;;;;;;13.80;10.50;;;;;;;6.86;100.00;99379.50;5034159;28;20513;-77
2021/12/29 09:42:51;;;;;;;19.67;14.30;;;;;;;6.89;100.00;99378.63;5033840;28;20124;-76
2021/12/29 09:45:22;;;;;;;18.45;13.48;;;;;;;6.98;100.00;99383.44;5033893;28;20026;-75
2021/12/29 09:48:04;;;;;;;17.00;13.23;;;;;;;7.05;100.00;99374.88;5034096;28;20120;-77
2021/12/29 09:50:32;;;;;;;16.63;12.32;;;;;;;6.93;100.00;99355.75;5033852;28;20033;-78
2021/12/29 09:52:58;;;;;;;15.82;12.07;;;;;;;7.07;100.00;99377.34;5034994;28;20026;-75
2021/12/29 09:55:32;;;;;;;14.27;10.70;;;;;;;6.99;100.00;99363.19;5034031;28;20084;-75
2021/12/29 09:58:00;;;;;;;13.95;10.13;;;;;;;6.86;100.00;99344.16;5034099;28;20039;-75
2021/12/29 10:00:38;;;;;;;13.38;9.57;;;;;;;6.99;100.00;99355.63;5033872;28;20055;-75
2021/12/29 10:03:42;;;;;;;12.07;8.82;;;;;;;7.10;100.00;99364.63;5034990;28;20041;-75
2021/12/29 10:09:33;;;;;;;11.57;8.63;;;;;;;7.08;100.00;99359.63;5034779;28;20263;-77
2021/12/29 10:12:22;;;;;;;9.75;7.63;;;;;;;7.15;100.00;99362.84;5033388;28;20100;-75
2021/12/29 10:15:07;;;;;;;10.50;8.75;;;;;;;7.15;100.00;99360.31;5034707;28;20112;-77
2021/12/29 10:21:08;;;;;;;12.10;9.00;;;;;;;7.17;100.00;99353.53;5034881;28;20037;-76
2021/12/29 10:24:22;;;;;;;12.95;9.43;;;;;;;7.20;100.00;99348.38;5034751;28;20344;-77
2021/12/29 10:26:50;;;;;;;14.25;10.23;;;;;;;7.14;100.00;99333.38;5033560;28;20033;-74
2021/12/29 10:29:27;;;;;;;15.55;10.63;;;;;;;7.18;100.00;99327.38;5033214;28;20037;-75
2021/12/29 10:32:04;;;;;;;14.52;9.73;;;;;;;7.23;100.00;99335.69;5034180;28;20636;-77
2021/12/29 10:34:33;;;;;;;15.27;10.40;;;;;;;7.22;100.00;99322.22;5034170;28;20045;-76
2021/12/29 10:37:09;;;;;;;16.50;9.82;;;;;;;7.20;100.00;99318.91;5033005;28;20025;-76
2021/12/29 10:39:43;;;;;;;16.25;9.88;;;;;;;7.24;100.00;99305.31;5053969;28;20503;-75
2021/12/29 10:42:26;;;;;;;13.88;9.60;;;;;;;7.27;100.00;99309.47;5034977;28;20033;-74
2021/12/29 10:45:00;;;;;;;15.25;9.25;;;;;;;7.33;100.00;99312.66;5054126;28;20124;-75
2021/12/29 10:47:37;;;;;;;17.23;10.90;;;;;;;7.33;100.00;99300.00;5036328;28;20047;-77
2021/12/29 10:50:36;;;;;;;13.30;9.20;;;;;;;7.36;100.00;99309.22;5035982;28;20027;-77
2021/12/29 10:56:25;;;;;;;12.35;9.18;;;;;;;7.38;100.00;99292.31;5054261;28;20112;-76
2021/12/29 10:59:17;;;;;;;11.88;8.63;;;;;;;7.41;100.00;99295.56;5053428;28;20017;-75
2021/12/29 11:01:51;;;;;;;15.05;10.50;;;;;;;7.56;100.00;99295.19;5035784;28;20029;-72
2021/12/29 11:05:00;;;;;;;15.18;10.57;;;;;;;7.48;100.00;99289.50;5034853;28;20095;-76
2021/12/29 11:07:38;;;;;;;15.82;10.18;;;;;;;7.48;100.00;99284.44;5053402;28;20112;-76
2021/12/29 11:10:19;;;;;;;22.02;14.50;;;;;;;7.52;100.00;99280.13;5050984;28;20493;-73
2021/12/29 11:13:09;;;;;;;15.13;10.75;;;;;;;7.55;100.00;99280.88;5052029;28;20028;-74
2021/12/29 11:15:52;;;;;;;14.50;9.98;;;;;;;7.56;100.00;99279.19;5052846;28;20111;-74
2021/12/29 11:18:47;;;;;;;14.10;9.45;;;;;;;7.58;100.00;99274.91;5053193;28;20064;-73
2021/12/29 11:21:33;;;;;;;11.90;9.63;;;;;;;7.56;100.00;99264.84;5053065;28;20033;-74
2021/12/29 11:24:25;;;;;;;20.58;17.75;;;;;;;7.66;100.00;99268.78;5034901;28;20115;-75
2021/12/29 11:26:58;;;;;;;14.90;13.30;;;;;;;7.44;100.00;99223.88;5042077;28;20041;-74
2021/12/29 11:29:55;;;;;;;12.02;10.77;;;;;;;7.68;100.00;99266.19;5052882;28;20055;-74
2021/12/29 11:32:25;;;;;;;14.52;12.57;;;;;;;7.72;100.00;99260.19;5034883;28;20045;-74
2021/12/29 11:35:01;;;;;;;19.02;14.25;;;;;;;7.73;100.00;99269.41;5052309;28;20033;-74
2021/12/29 11:37:27;;;;;;;17.63;14.07;;;;;;;7.65;100.00;99258.69;5034122;28;20056;-72
2021/12/29 11:39:59;;;;;;;20.95;16.13;;;;;;;7.68;100.00;99253.56;5052420;28;20025;-73
2021/12/29 11:42:35;;;;;;;;;;;;;;;7.71;100.00;99256.81;5034772;28;20095;-73
2021/12/29 11:45:04;;;;;;;25.27;20.73;;;;;;;7.64;100.00;99249.47;5052332;28;19920;-73
2021/12/29 11:47:31;;;;;;;17.50;15.48;;;;;;;7.68;100.00;99251.03;5052058;28;20025;-73
2021/12/29 11:49:58;;;;;;;19.75;16.35;;;;;;;7.64;100.00;99251.97;5052002;28;20036;-74
2021/12/29 11:52:30;;;;;;;19.85;17.10;;;;;;;7.68;100.00;99243.44;5051186;28;20037;-73
2021/12/29 11:55:29;;;;;;;20.95;17.70;;;;;;;7.62;100.00;99241.09;5051703;28;20025;-73
2021/12/29 11:58:07;;;;;;;18.98;15.50;;;;;;;7.67;100.00;99237.53;5052297;28;20033;-74
2021/12/29 12:00:35;;;;;;;17.20;14.70;;;;;;;7.65;100.00;99238.44;5052112;28;20139;-74
2021/12/29 12:03:55;;;;;;;16.98;13.90;;;;;;;7.63;100.00;99230.91;5052153;28;20495;-76
2021/12/29 12:06:41;;;;;;;15.48;13.30;;;;;;;7.65;100.00;99228.34;5052126;28;20057;-72
2021/12/29 12:09:25;;;;;;;18.02;12.38;;;;;;;7.63;100.00;99222.50;5051960;28;20093;-73
2021/12/29 12:11:54;;;;;;;17.85;14.48;;;;;;;7.68;100.00;99225.72;5034209;28;20163;-73
2021/12/29 12:14:36;;;;;;;25.17;20.08;;;;;;;7.33;100.00;99178.66;5017295;28;20033;-73
2021/12/29 12:17:10;;;;;;;23.15;18.58;;;;;;;7.70;100.00;99218.94;5031669;28;20059;-74
2021/12/29 12:19:40;;;;;;;20.80;16.33;;;;;;;7.67;100.00;99219.84;5031658;28;20029;-74
2021/12/29 12:22:29;;;;;;;21.25;17.20;;;;;;;7.72;100.00;99222.25;5031937;28;20442;-76
2021/12/29 12:25:06;;;;;;;19.73;16.00;;;;;;;7.71;100.00;99208.75;5032272;28;20492;-75
2021/12/29 12:27:38;;;;;;;17.55;14.75;;;;;;;7.76;100.00;99223.81;5013678;28;20060;-72
2021/12/29 12:30:26;;;;;;;19.80;16.42;;;;;;;7.84;100.00;99221.88;5031579;28;20026;-74
2021/12/29 12:33:13;;;;;;;20.45;16.45;;;;;;;7.82;100.00;99221.09;5032202;28;20037;-75
2021/12/29 12:36:07;;;;;;;22.02;15.27;;;;;;;7.82;100.00;99223.63;5031680;28;20050;-73
2021/12/29 12:38:35;;;;;;;17.77;14.23;;;;;;;7.81;100.00;99225.34;5031118;28;20049;-73
2021/12/29 12:41:18;;;;;;;17.17;13.60;;;;;;;7.75;100.00;99209.50;5031456;28;20112;-72
2021/12/29 12:44:04;;;;;;;17.48;13.50;;;;;;;7.83;100.00;99223.59;5013720;28;20025;-73
2021/12/29 12:47:07;;;;;;;17.77;13.30;;;;;;;7.84;100.00;99220.16;5029953;28;20223;-74
2021/12/29 12:50:03;;;;;;;16.88;13.73;;;;;;;7.84;100.00;99224.44;5031340;28;20032;-74
2021/12/29 12:52:42;;;;;;;15.13;12.00;;;;;;;7.83;100.00;99222.75;5014288;28;20120;-73
2021/12/29 12:55:27;;;;;;;14.35;11.82;;;;;;;7.81;100.00;99215.22;5033285;28;20084;-74
2021/12/29 12:58:09;;;;;;;13.90;11.75;;;;;;;7.86;100.00;99225.22;5051497;28;20039;-74
2021/12/29 13:00:41;;;;;;;;;;;;;;;7.93;100.00;99224.13;5032933;28;20497;-73
2021/12/29 13:03:13;;;;;;;13.88;8.98;;;;;;;7.89;100.00;99231.00;5033142;28;19991;-75
2021/12/29 13:06:10;;;;;;;16.83;13.50;;;;;;;7.93;100.00;99231.72;5049768;28;20045;-75
2021/12/29 13:08:46;;;;;;;18.77;14.00;;;;;;;7.91;100.00;99225.88;5051102;28;20025;-71